Alden, Minnesota
Current Conditions -  °F | °C
As of 12:01 AM on Saturday 01 Nov 2014 (Local Time) from KAEL Reporting Station
Clear Clear  
Wind Chill: 21°   Ceiling: Unl
Heat Index: 21°   Visibility: 10mi
Dew Point: 18°   Wind: 2mph
Humidity: 86%   Direction: 50°NE
Pressure: 30.47"   Gusts: NA
Location:  43.67°N, 93.58°W
Report Text: KAEL 010501Z AUTO 05002KT 10SM CLR M06/M08 A3047 RMK AO2
Loading
Personal Weather Stations






























Interactive Weather Map
Tropical Storm Tracking
New forecast layout! Learn more

10-Day Weather Forecast

Advertisements
Track Severe Weather on mobile